Weather reports worldwide

Advertisment
Concordia Sagittaria, Italy (16107): temperature & dewpoint: 10.11.2018 05:00:00 - 16.11.2018 05:00:00 (CET)Concordia Sagittaria, Italy (16107): wind speed: 10.11.2018 05:00:00 - 16.11.2018 05:00:00 (CET)Concordia Sagittaria, Italy (16107): wind direction: 10.11.2018 05:00:00 - 16.11.2018 05:00:00 (CET)Concordia Sagittaria, Italy (16107): reduced air pressure: 10.11.2018 05:00:00 - 16.11.2018 05:00:00 (CET)Concordia Sagittaria, Italy (16107): precipitation: 10.11.2018 05:00:00 - 16.11.2018 05:00:00 (CET)
Date & Time tt [°C] td [°C] ff [km/h] ff [kn] dd ppp [hPa] rr [mm]
16.11.2018 05:00:00 7,3 3,9 5 3 N 1031,1 -
16.11.2018 04:00:00 8,5 5,4 18 10 NE 1030,9 -
16.11.2018 03:00:00 7,7 6,0 9 5 NNE 1030,4 -
16.11.2018 02:00:00 7,3 5,7 9 5 NNE 1030,2 -
16.11.2018 01:00:00 7,6 5,7 8 4 NNW 1029,8 0,0
16.11.2018 00:00:00 8,8 6,6 5 3 N 1029,8 -
15.11.2018 23:00:00 8,8 6,6 8 4 N 1030,1 -
15.11.2018 22:00:00 8,4 5,8 8 4 NNE 1029,8 -
15.11.2018 21:00:00 9,2 5,9 8 4 NE 1029,7 -
15.11.2018 20:00:00 10,2 6,3 0 0 N 1029,2 -
15.11.2018 19:00:00 12,2 6,8 4 2 E 1029,1 0,0
15.11.2018 18:00:00 15,4 7,6 9 5 E 1029,4 -
15.11.2018 17:00:00 16,2 6,8 8 4 ENE 1029,6 -
15.11.2018 16:00:00 15,9 7,6 9 5 ENE 1029,9 -
15.11.2018 15:00:00 15,7 8,6 8 4 NE 1030,6 -
15.11.2018 14:00:00 15,0 8,2 13 7 ENE 1031,0 -
15.11.2018 13:00:00 14,0 9,6 8 4 NNE 1031,6 0,0
15.11.2018 12:00:00 12,0 10,4 5 3 NNE 1031,7 -
15.11.2018 11:00:00 9,5 7,9 5 3 N 1031,8 -
15.11.2018 10:00:00 7,2 5,6 8 4 N 1031,8 -
15.11.2018 09:00:00 7,1 5,5 5 3 NNW 1031,6 -
15.11.2018 08:00:00 7,1 5,5 9 5 NNW 1031,4 -
15.11.2018 07:00:00 7,8 6,2 8 4 NNW 1031,4 0,0
15.11.2018 06:00:00 8,2 6,6 8 4 N 1031,3 -
15.11.2018 05:00:00 8,4 6,8 8 4 NNW 1031,6 -
15.11.2018 04:00:00 8,3 6,7 8 4 N 1032,0 -
15.11.2018 03:00:00 8,9 7,3 9 5 N 1031,9 -
15.11.2018 02:00:00 9,1 7,5 9 5 N 1032,3 -
15.11.2018 01:00:00 9,4 7,8 8 4 N 1032,4 0,0
15.11.2018 00:00:00 10,0 8,4 5 3 NNW 1032,4 -
14.11.2018 23:00:00 9,7 8,1 0 0 N 1032,2 -
14.11.2018 22:00:00 10,3 8,7 4 2 N 1032,2 -
14.11.2018 21:00:00 10,8 9,0 4 2 NNW 1031,8 -
14.11.2018 20:00:00 12,4 9,2 0 0 N 1031,5 -
14.11.2018 19:00:00 14,0 8,6 2 1 NNE 1031,6 0,0
14.11.2018 18:00:00 17,2 11,2 4 2 NE 1031,6 -
14.11.2018 17:00:00 18,8 11,1 8 4 NE 1031,7 -
14.11.2018 16:00:00 19,1 11,4 9 5 ENE 1032,0 -
14.11.2018 15:00:00 18,9 11,9 15 8 ENE 1032,8 -
14.11.2018 14:00:00 17,8 12,6 8 4 ENE 1033,5 -
14.11.2018 13:00:00 16,6 13,2 9 5 NNE 1034,1 0,0
14.11.2018 12:00:00 14,9 13,2 9 5 N 1034,0 -
14.11.2018 11:00:00 12,0 10,6 11 6 N 1034,3 -
14.11.2018 10:00:00 9,4 8,0 9 5 NW 1033,8 -
14.11.2018 09:00:00 8,9 7,5 8 4 N 1033,4 -
14.11.2018 08:00:00 8,8 7,4 5 3 NNW 1033,2 -
14.11.2018 07:00:00 8,8 7,4 8 4 NNW 1033,1 0,0
14.11.2018 06:00:00 9,8 8,4 4 2 NW 1033,0 -
14.11.2018 05:00:00 10,8 9,4 4 2 NNW 1033,2 -
14.11.2018 04:00:00 11,4 10,0 8 4 N 1033,4 -
14.11.2018 03:00:00 11,9 10,3 5 3 N 1033,2 -
14.11.2018 02:00:00 12,0 10,4 8 4 NNW 1033,3 -
14.11.2018 01:00:00 12,4 10,8 5 3 N 1033,3 0,0
14.11.2018 00:00:00 13,3 11,7 4 2 NW 1033,4 -
13.11.2018 23:00:00 13,4 11,8 0 0 N 1032,9 -
13.11.2018 22:00:00 13,6 12,0 0 0 N 1032,7 -
13.11.2018 21:00:00 13,7 12,1 0 0 N 1032,3 -
13.11.2018 20:00:00 13,8 12,2 2 1 N 1032,2 -
13.11.2018 19:00:00 14,1 12,5 0 0 N 1032,0 0,0
13.11.2018 18:00:00 14,1 12,5 0 0 N 1031,8 -
13.11.2018 17:00:00 14,3 12,7 4 2 NNW 1031,7 -
13.11.2018 16:00:00 14,5 12,8 4 2 W 1032,0 -
13.11.2018 15:00:00 14,7 13,0 4 2 SW 1032,1 -
13.11.2018 14:00:00 14,5 12,8 4 2 SSW 1032,5 -
13.11.2018 13:00:00 14,2 12,6 5 3 SSW 1032,8 0,0
13.11.2018 12:00:00 13,9 12,3 5 3 SSW 1032,4 -
13.11.2018 11:00:00 13,6 12,0 4 2 S 1032,3 -
13.11.2018 10:00:00 13,3 11,7 4 2 SSE 1032,0 -
13.11.2018 09:00:00 13,5 11,9 0 0 N 1031,5 -
13.11.2018 08:00:00 13,6 12,0 2 1 SW 1031,3 -
13.11.2018 07:00:00 13,5 11,9 0 0 N 1031,5 0,0
13.11.2018 06:00:00 13,5 11,9 0 0 N 1031,6 -
13.11.2018 05:00:00 13,3 11,8 4 2 SSE 1031,8 -
13.11.2018 04:00:00 13,0 11,5 4 2 SE 1031,8 -
13.11.2018 03:00:00 12,8 11,4 2 1 SE 1031,7 -
13.11.2018 02:00:00 12,5 11,1 4 2 SE 1031,9 -
13.11.2018 01:00:00 12,0 10,6 4 2 E 1031,9 0,0
13.11.2018 00:00:00 11,1 9,5 0 0 N 1032,1 -
12.11.2018 23:00:00 10,3 8,7 0 0 N 1032,1 -
12.11.2018 22:00:00 11,0 9,4 0 0 N 1031,9 -
12.11.2018 21:00:00 11,7 10,1 0 0 N 1031,8 -
12.11.2018 20:00:00 12,8 11,2 4 2 S 1031,3 -
12.11.2018 19:00:00 14,4 12,8 4 2 SW 1031,0 0,0
12.11.2018 18:00:00 15,5 13,8 8 4 SE 1030,9 -
12.11.2018 17:00:00 17,1 14,3 9 5 SE 1030,8 -
12.11.2018 16:00:00 17,2 15,5 0 0 N 1030,8 -
12.11.2018 15:00:00 14,7 13,2 4 2 S 1031,0 -
12.11.2018 14:00:00 13,6 12,1 4 2 SSW 1031,2 -
12.11.2018 13:00:00 13,1 11,6 2 1 NW 1031,5 0,0
12.11.2018 12:00:00 12,3 10,9 2 1 SW 1031,3 -
12.11.2018 11:00:00 11,6 10,2 4 2 WNW 1031,0 -
12.11.2018 10:00:00 10,5 9,1 4 2 WNW 1030,5 -
12.11.2018 09:00:00 10,0 8,6 0 0 N 1029,9 -
12.11.2018 08:00:00 10,1 8,7 0 0 N 1029,7 -
12.11.2018 07:00:00 9,4 7,8 0 0 N 1029,4 0,0
12.11.2018 06:00:00 10,0 8,4 0 0 N 1029,0 -
12.11.2018 05:00:00 10,9 9,3 4 2 NW 1029,0 -
12.11.2018 04:00:00 11,3 9,7 2 1 NNW 1028,9 -
12.11.2018 03:00:00 11,6 10,0 4 2 WNW 1028,7 -
12.11.2018 02:00:00 11,9 10,3 0 0 N 1028,7 -
12.11.2018 01:00:00 12,3 10,7 0 0 N 1028,3 0,0
12.11.2018 00:00:00 13,5 11,9 0 0 N 1028,1 -
11.11.2018 23:00:00 13,9 12,3 0 0 N 1027,6 -
11.11.2018 22:00:00 13,8 12,2 0 0 N 1027,6 -
11.11.2018 21:00:00 14,2 12,6 2 1 NW 1027,4 -
11.11.2018 20:00:00 14,5 12,8 4 2 NNW 1026,9 -
11.11.2018 19:00:00 14,9 13,2 5 3 N 1026,6 0,0
11.11.2018 18:00:00 15,5 13,8 4 2 NW 1026,4 -
11.11.2018 17:00:00 15,8 14,1 5 3 N 1026,2 -
11.11.2018 16:00:00 15,8 13,9 8 4 N 1026,0 -
11.11.2018 15:00:00 15,7 14,0 9 5 NNW 1025,8 -
11.11.2018 14:00:00 15,3 13,6 8 4 NNE 1025,6 -
11.11.2018 13:00:00 14,4 12,8 9 5 N 1025,6 0,0
11.11.2018 12:00:00 14,3 12,7 8 4 N 1024,9 -
11.11.2018 11:00:00 13,4 11,8 8 4 N 1024,4 -
11.11.2018 10:00:00 12,7 11,1 5 3 N 1024,2 -
11.11.2018 09:00:00 12,6 11,0 4 2 NNW 1023,4 -
11.11.2018 08:00:00 12,5 10,9 5 3 N 1022,8 -
11.11.2018 07:00:00 12,5 10,9 4 2 N 1022,7 0,0
11.11.2018 06:00:00 12,4 10,8 4 2 NNW 1022,6 -
11.11.2018 05:00:00 12,8 11,2 0 0 N 1022,7 -
11.11.2018 04:00:00 12,7 11,1 5 3 NNW 1022,4 -
11.11.2018 03:00:00 12,9 11,3 0 0 N 1022,4 -
11.11.2018 02:00:00 13,0 11,4 4 2 WNW 1022,6 -
11.11.2018 01:00:00 12,8 11,2 0 0 N 1022,6 0,0
11.11.2018 00:00:00 13,1 11,5 0 0 N 1022,7 -
10.11.2018 23:00:00 13,2 11,6 0 0 N 1022,3 -
10.11.2018 22:00:00 13,2 11,6 4 2 NW 1022,1 -
10.11.2018 21:00:00 13,3 11,7 0 0 N 1022,1 -
10.11.2018 20:00:00 13,5 11,9 0 0 N 1021,8 -
10.11.2018 19:00:00 13,8 12,2 0 0 N 1021,7 0,0
10.11.2018 18:00:00 13,8 12,2 4 2 NNW 1021,3 -
10.11.2018 17:00:00 14,2 12,6 4 2 NNW 1021,2 -
10.11.2018 16:00:00 14,2 12,6 0 0 N 1021,7 -
10.11.2018 15:00:00 13,9 12,3 0 0 N 1022,0 -
10.11.2018 14:00:00 13,8 12,2 0 0 N 1022,5 -
10.11.2018 13:00:00 13,5 11,9 4 2 WNW 1022,8 0,0
10.11.2018 12:00:00 13,0 11,4 0 0 N 1022,8 -
10.11.2018 11:00:00 12,2 10,6 4 2 W 1022,7 -
10.11.2018 10:00:00 12,0 10,4 0 0 N 1022,5 -
10.11.2018 09:00:00 11,9 10,3 0 0 N 1022,2 -
10.11.2018 08:00:00 12,0 10,4 0 0 N 1022,3 -
10.11.2018 07:00:00 12,2 10,6 2 1 WNW 1022,5 0,0
10.11.2018 06:00:00 12,3 10,7 0 0 N 1022,4 -
10.11.2018 05:00:00 12,2 10,6 0 0 N 1022,5 -

tt = temperature
td = dewpoint
ff = wind speed
dd = wind direction
ppp = reduced air pressure
rr = precipitation

Next stations